»·PEaware :: N359W KMFR-KRDD

N359W :: KMFR-KRDD

FLIGHT INFORMATION

Flight Status: Arrived
Operator: Privately registered:
United States
More flights under this callsign
Pilot: Anonymous 18613 (18613)
Aircraft: BEECH AIRCRAFT BARON
(BE58)
More flights by this aircraft type
Origin: KMFR Rogue Valley Intl-Medford
United States
Destination: KRDD Redding Mun
United States
More flights between these airports :: More routes between these airports
Route: JKSN1 OED V23 FOLDS
File this flight plan on PilotEdge
Remarks:
Altitude:
(Current/Filed)
11,000ft
Speed:
(Current/Filed)
205kts
Departed: 08-Jul-18 09:22 AM
Arrived: 08-Jul-18 10:15 AM
Distance/Time
Traveled:
115nm/0:53
Distance/Time
To Go:
Arrived

Flight Plot

Page will automatically refresh every two minutes.

Flight plan parsing failed; only flown route is shown


Map Options




Map Legend


Flown Route
Filed Route
Departure Airport
Arrival Airport
Navaid (VOR, NDB)
Fix

Horizontal Profiles

Position Reports

Time Latitude Longitude Heading Altitude Ground
Speed
08-Jul-18 09:07 42.375492 -122.877989 114 1334ft 0kts
08-Jul-18 09:07 42.375492 -122.877989 114 1334ft 0kts
08-Jul-18 09:08 42.375492 -122.877989 114 1334ft 0kts
08-Jul-18 09:09 42.375492 -122.877989 114 1334ft 0kts
08-Jul-18 09:10 42.375492 -122.877989 114 1334ft 0kts
08-Jul-18 09:11 42.375492 -122.877989 114 1334ft 0kts
08-Jul-18 09:12 42.375492 -122.877989 114 1334ft 0kts
08-Jul-18 09:13 42.375492 -122.877989 114 1334ft 0kts
08-Jul-18 09:14 42.375492 -122.877989 114 1334ft 0kts
08-Jul-18 09:15 42.375492 -122.877989 114 1334ft 0kts
08-Jul-18 09:16 42.373757 -122.879121 34 1334ft 1kts
08-Jul-18 09:17 42.372623 -122.875602 95 1334ft 3kts
08-Jul-18 09:18 42.377337 -122.876119 338 1334ft 26kts
08-Jul-18 09:20 42.384537 -122.879900 338 1334ft 26kts
08-Jul-18 09:21 42.385802 -122.880141 70 1334ft 0kts
08-Jul-18 09:22 42.385827 -122.878958 159 1334ft 24kts
08-Jul-18 09:23 42.360505 -122.865861 160 2112ft 110kts
08-Jul-18 09:24 42.336053 -122.875929 253 3333ft 107kts
08-Jul-18 09:25 42.351366 -122.902547 332 4579ft 92kts
08-Jul-18 09:26 42.378703 -122.920616 332 5620ft 119kts
08-Jul-18 09:27 42.406515 -122.922426 75 6922ft 120kts
08-Jul-18 09:28 42.385585 -122.893191 157 7959ft 124kts
08-Jul-18 09:29 42.352244 -122.882373 184 8897ft 124kts
08-Jul-18 09:30 42.320563 -122.884099 199 9831ft 115kts
08-Jul-18 09:31 42.291781 -122.897790 203 10697ft 110kts
08-Jul-18 09:32 42.260975 -122.883709 180 11080ft 139kts
08-Jul-18 09:33 42.218591 -122.881108 181 11022ft 163kts
08-Jul-18 09:34 42.172251 -122.876826 180 11019ft 169kts
08-Jul-18 09:35 42.125002 -122.871775 180 11000ft 171kts
08-Jul-18 09:36 42.077797 -122.866480 180 11000ft 171kts
08-Jul-18 09:37 42.030561 -122.861114 180 11005ft 170kts
08-Jul-18 09:38 41.983262 -122.855672 179 11010ft 171kts
08-Jul-18 09:39 41.936015 -122.850708 181 11015ft 170kts
08-Jul-18 09:40 41.889909 -122.846472 181 11020ft 170kts
08-Jul-18 09:41 41.842489 -122.842153 181 11021ft 171kts
08-Jul-18 09:42 41.795059 -122.837809 181 11020ft 171kts
08-Jul-18 09:43 41.747669 -122.833465 181 11020ft 171kts
08-Jul-18 09:44 41.700291 -122.829129 181 11020ft 171kts
08-Jul-18 09:45 41.652815 -122.824795 181 11020ft 171kts
08-Jul-18 09:46 41.605508 -122.820483 181 11020ft 171kts
08-Jul-18 09:47 41.558179 -122.815675 180 11020ft 171kts
08-Jul-18 09:48 41.510893 -122.810781 180 11019ft 171kts
08-Jul-18 09:49 41.463453 -122.805862 180 11019ft 171kts
08-Jul-18 09:50 41.416765 -122.794382 164 11020ft 176kts
08-Jul-18 09:51 41.371354 -122.771196 165 11019ft 175kts
08-Jul-18 09:52 41.325367 -122.749164 166 11024ft 175kts
08-Jul-18 09:53 41.280465 -122.728167 166 11129ft 173kts
08-Jul-18 09:54 41.234780 -122.707029 166 11129ft 174kts
08-Jul-18 09:55 41.189001 -122.685934 166 11129ft 174kts
08-Jul-18 09:56 41.143209 -122.664894 166 11128ft 174kts
08-Jul-18 09:57 41.097439 -122.643897 166 11116ft 175kts
08-Jul-18 09:58 41.051523 -122.622849 167 11074ft 175kts
08-Jul-18 09:59 41.005629 -122.601846 167 11035ft 174kts
08-Jul-18 10:00 40.960101 -122.581046 168 11004ft 172kts
08-Jul-18 10:01 40.914964 -122.560761 168 10999ft 171kts
08-Jul-18 10:02 40.871062 -122.557327 180 11005ft 166kts
08-Jul-18 10:03 40.825921 -122.546442 173 10686ft 163kts
08-Jul-18 10:04 40.779896 -122.529137 169 9272ft 179kts
08-Jul-18 10:05 40.736837 -122.499626 102 8107ft 182kts
08-Jul-18 10:06 40.753610 -122.441139 55 6923ft 167kts
08-Jul-18 10:07 40.777921 -122.391327 63 5779ft 155kts
08-Jul-18 10:08 40.782221 -122.338962 91 4836ft 144kts
08-Jul-18 10:09 40.759176 -122.304330 174 4278ft 161kts
08-Jul-18 10:10 40.715716 -122.293899 175 3267ft 143kts
08-Jul-18 10:11 40.678361 -122.294429 186 2250ft 131kts
08-Jul-18 10:12 40.644012 -122.297454 175 1714ft 122kts
08-Jul-18 10:13 40.606540 -122.291748 180 2057ft 160kts
08-Jul-18 10:14 40.563483 -122.294988 182 1670ft 144kts
08-Jul-18 10:15 40.531561 -122.294792 180 849ft 105kts
08-Jul-18 10:16 40.514222 -122.295537 268 505ft 5kts
08-Jul-18 10:17 40.513734 -122.296283 181 505ft 14kts
08-Jul-18 10:18 40.512368 -122.296350 243 505ft 0kts
08-Jul-18 10:19 40.510205 -122.298005 179 505ft 0kts

Navigation Log

Ident Type
Flight plan parsing failed, navigation log unavailable